sensor_id;sensor_type;location;lat;lon;timestamp;pressure;altitude;pressure_sealevel;temperature;humidity
85039;BME280;75366;54.588;18.456;2024-01-11T00:03:41;101598.52;;;0.17;87.95
85039;BME280;75366;54.588;18.456;2024-01-11T00:08:44;101622.02;;;0.19;87.79
85039;BME280;75366;54.588;18.456;2024-01-11T00:13:47;101618.77;;;0.22;87.53
85039;BME280;75366;54.588;18.456;2024-01-11T00:18:50;101605.44;;;0.24;87.27
85039;BME280;75366;54.588;18.456;2024-01-11T00:23:53;101580.21;;;0.25;87.31
85039;BME280;75366;54.588;18.456;2024-01-11T00:28:56;101559.70;;;0.26;87.23
85039;BME280;75366;54.588;18.456;2024-01-11T00:33:59;101566.13;;;0.29;87.03
85039;BME280;75366;54.588;18.456;2024-01-11T00:39:02;101546.15;;;0.29;87.20
85039;BME280;75366;54.588;18.456;2024-01-11T00:44:05;101536.27;;;0.33;87.01
85039;BME280;75366;54.588;18.456;2024-01-11T00:49:10;101545.02;;;0.35;87.04
85039;BME280;75366;54.588;18.456;2024-01-11T00:54:14;101564.75;;;0.38;86.89
85039;BME280;75366;54.588;18.456;2024-01-11T00:59:17;101585.39;;;0.41;86.69
85039;BME280;75366;54.588;18.456;2024-01-11T01:04:20;101596.27;;;0.43;86.63
85039;BME280;75366;54.588;18.456;2024-01-11T01:09:23;101606.14;;;0.46;86.56
85039;BME280;75366;54.588;18.456;2024-01-11T01:14:26;101584.93;;;0.47;86.56
85039;BME280;75366;54.588;18.456;2024-01-11T01:19:29;101558.86;;;0.48;86.49
85039;BME280;75366;54.588;18.456;2024-01-11T01:24:33;101534.02;;;0.47;86.08
85039;BME280;75366;54.588;18.456;2024-01-11T01:29:36;101521.22;;;0.51;86.10
85039;BME280;75366;54.588;18.456;2024-01-11T01:34:40;101528.30;;;0.50;85.83
85039;BME280;75366;54.588;18.456;2024-01-11T01:39:43;101526.45;;;0.53;85.73
85039;BME280;75366;54.588;18.456;2024-01-11T01:44:47;101518.02;;;0.53;85.61
85039;BME280;75366;54.588;18.456;2024-01-11T01:49:50;101509.54;;;0.55;85.41
85039;BME280;75366;54.588;18.456;2024-01-11T01:54:53;101506.70;;;0.54;85.40
85039;BME280;75366;54.588;18.456;2024-01-11T01:59:56;101516.52;;;0.54;85.51
85039;BME280;75366;54.588;18.456;2024-01-11T02:04:59;101496.36;;;0.53;85.47
85039;BME280;75366;54.588;18.456;2024-01-11T02:10:03;101482.59;;;0.52;85.23
85039;BME280;75366;54.588;18.456;2024-01-11T02:15:06;101474.50;;;0.51;85.34
85039;BME280;75366;54.588;18.456;2024-01-11T02:20:10;101480.15;;;0.50;85.40
85039;BME280;75366;54.588;18.456;2024-01-11T02:25:12;101477.77;;;0.50;85.45
85039;BME280;75366;54.588;18.456;2024-01-11T02:30:17;101476.27;;;0.50;85.34
85039;BME280;75366;54.588;18.456;2024-01-11T02:35:21;101472.03;;;0.49;85.39
85039;BME280;75366;54.588;18.456;2024-01-11T02:40:25;101445.96;;;0.50;85.62
85039;BME280;75366;54.588;18.456;2024-01-11T02:45:28;101426.96;;;0.50;85.26
85039;BME280;75366;54.588;18.456;2024-01-11T02:50:32;101419.67;;;0.51;85.26
85039;BME280;75366;54.588;18.456;2024-01-11T02:55:35;101421.89;;;0.50;85.30
85039;BME280;75366;54.588;18.456;2024-01-11T03:00:38;101423.36;;;0.51;85.42
85039;BME280;75366;54.588;18.456;2024-01-11T03:05:42;101418.48;;;0.51;85.16
85039;BME280;75366;54.588;18.456;2024-01-11T03:10:45;101416.95;;;0.52;85.27
85039;BME280;75366;54.588;18.456;2024-01-11T03:15:48;101419.56;;;0.55;85.07
85039;BME280;75366;54.588;18.456;2024-01-11T03:20:52;101421.55;;;0.57;85.12
85039;BME280;75366;54.588;18.456;2024-01-11T03:25:55;101408.30;;;0.56;85.11
85039;BME280;75366;54.588;18.456;2024-01-11T03:30:57;101421.50;;;0.57;85.16
85039;BME280;75366;54.588;18.456;2024-01-11T03:36:11;101419.19;;;0.57;85.04
85039;BME280;75366;54.588;18.456;2024-01-11T03:41:14;101427.65;;;0.59;84.93
85039;BME280;75366;54.588;18.456;2024-01-11T03:46:17;101431.71;;;0.60;84.86
85039;BME280;75366;54.588;18.456;2024-01-11T03:51:20;101417.59;;;0.61;84.88
85039;BME280;75366;54.588;18.456;2024-01-11T03:56:23;101419.98;;;0.62;84.85
85039;BME280;75366;54.588;18.456;2024-01-11T04:02:14;101414.59;;;0.63;84.70
85039;BME280;75366;54.588;18.456;2024-01-11T04:07:17;101399.63;;;0.65;84.68
85039;BME280;75366;54.588;18.456;2024-01-11T04:12:20;101398.34;;;0.64;84.80
85039;BME280;75366;54.588;18.456;2024-01-11T04:17:24;101385.92;;;0.65;84.71
85039;BME280;75366;54.588;18.456;2024-01-11T04:22:28;101381.36;;;0.63;84.49
85039;BME280;75366;54.588;18.456;2024-01-11T04:27:31;101377.66;;;0.65;84.30
85039;BME280;75366;54.588;18.456;2024-01-11T04:32:34;101369.81;;;0.64;84.48
85039;BME280;75366;54.588;18.456;2024-01-11T04:37:38;101370.06;;;0.66;84.25
85039;BME280;75366;54.588;18.456;2024-01-11T04:42:41;101366.42;;;0.65;84.32
85039;BME280;75366;54.588;18.456;2024-01-11T04:47:44;101367.52;;;0.65;84.13
85039;BME280;75366;54.588;18.456;2024-01-11T04:52:47;101345.06;;;0.62;84.23
85039;BME280;75366;54.588;18.456;2024-01-11T04:57:50;101344.61;;;0.64;84.22
85039;BME280;75366;54.588;18.456;2024-01-11T05:02:53;101355.64;;;0.62;84.40
85039;BME280;75366;54.588;18.456;2024-01-11T05:07:57;101356.48;;;0.66;84.41
85039;BME280;75366;54.588;18.456;2024-01-11T05:13:00;101365.48;;;0.66;84.52
85039;BME280;75366;54.588;18.456;2024-01-11T05:18:03;101362.49;;;0.67;84.38
85039;BME280;75366;54.588;18.456;2024-01-11T05:23:07;101363.23;;;0.67;84.42
85039;BME280;75366;54.588;18.456;2024-01-11T05:28:11;101373.73;;;0.69;84.40
85039;BME280;75366;54.588;18.456;2024-01-11T05:33:15;101357.54;;;0.71;84.37
85039;BME280;75366;54.588;18.456;2024-01-11T05:38:18;101345.55;;;0.70;84.25
85039;BME280;75366;54.588;18.456;2024-01-11T05:43:22;101349.86;;;0.71;84.30
85039;BME280;75366;54.588;18.456;2024-01-11T05:48:26;101346.20;;;0.70;84.41
85039;BME280;75366;54.588;18.456;2024-01-11T05:53:29;101353.05;;;0.69;84.33
85039;BME280;75366;54.588;18.456;2024-01-11T05:58:32;101353.02;;;0.69;84.43
85039;BME280;75366;54.588;18.456;2024-01-11T06:03:35;101358.91;;;0.68;84.45
85039;BME280;75366;54.588;18.456;2024-01-11T06:08:40;101356.40;;;0.67;84.47
85039;BME280;75366;54.588;18.456;2024-01-11T06:13:45;101349.36;;;0.67;84.53
85039;BME280;75366;54.588;18.456;2024-01-11T06:18:49;101323.83;;;0.64;84.60
85039;BME280;75366;54.588;18.456;2024-01-11T06:23:52;101325.34;;;0.67;84.62
85039;BME280;75366;54.588;18.456;2024-01-11T06:28:56;101318.27;;;0.64;84.60
85039;BME280;75366;54.588;18.456;2024-01-11T06:33:59;101324.44;;;0.62;84.77
85039;BME280;75366;54.588;18.456;2024-01-11T06:39:02;101342.80;;;0.64;84.77
85039;BME280;75366;54.588;18.456;2024-01-11T06:44:06;101348.92;;;0.66;84.54
85039;BME280;75366;54.588;18.456;2024-01-11T06:49:09;101347.67;;;0.64;84.80
85039;BME280;75366;54.588;18.456;2024-01-11T06:54:12;101355.88;;;0.67;84.78
85039;BME280;75366;54.588;18.456;2024-01-11T06:59:15;101380.32;;;0.67;84.84
85039;BME280;75366;54.588;18.456;2024-01-11T07:04:21;101388.54;;;0.69;84.76
85039;BME280;75366;54.588;18.456;2024-01-11T07:09:24;101379.11;;;0.68;84.80
85039;BME280;75366;54.588;18.456;2024-01-11T07:14:28;101377.54;;;0.71;84.58
85039;BME280;75366;54.588;18.456;2024-01-11T07:19:33;101365.77;;;0.73;84.61
85039;BME280;75366;54.588;18.456;2024-01-11T07:24:36;101371.41;;;0.71;84.83
85039;BME280;75366;54.588;18.456;2024-01-11T07:29:42;101372.92;;;0.70;84.81
85039;BME280;75366;54.588;18.456;2024-01-11T07:34:46;101379.21;;;0.69;84.82
85039;BME280;75366;54.588;18.456;2024-01-11T07:39:49;101380.98;;;0.74;84.93
85039;BME280;75366;54.588;18.456;2024-01-11T07:44:52;101382.80;;;0.75;84.90
85039;BME280;75366;54.588;18.456;2024-01-11T07:49:55;101382.58;;;0.79;84.90
85039;BME280;75366;54.588;18.456;2024-01-11T07:54:58;101387.02;;;0.82;84.76
85039;BME280;75366;54.588;18.456;2024-01-11T08:00:09;101378.56;;;0.86;84.66
85039;BME280;75366;54.588;18.456;2024-01-11T08:05:12;101370.53;;;0.87;84.84
85039;BME280;75366;54.588;18.456;2024-01-11T08:10:15;101385.38;;;0.93;84.69
85039;BME280;75366;54.588;18.456;2024-01-11T08:15:18;101381.41;;;0.97;84.42
85039;BME280;75366;54.588;18.456;2024-01-11T08:20:41;101378.08;;;1.01;84.51
85039;BME280;75366;54.588;18.456;2024-01-11T08:26:04;101369.43;;;1.04;84.44
85039;BME280;75366;54.588;18.456;2024-01-11T08:31:27;101370.05;;;1.09;84.43
85039;BME280;75366;54.588;18.456;2024-01-11T08:36:50;101364.00;;;1.18;84.26
85039;BME280;75366;54.588;18.456;2024-01-11T08:42:13;101363.02;;;1.24;83.96
85039;BME280;75366;54.588;18.456;2024-01-11T08:47:36;101358.38;;;1.27;83.73
85039;BME280;75366;54.588;18.456;2024-01-11T08:52:42;101359.96;;;1.30;83.70
85039;BME280;75366;54.588;18.456;2024-01-11T08:57:45;101354.28;;;1.32;83.74
85039;BME280;75366;54.588;18.456;2024-01-11T09:02:48;101361.69;;;1.39;83.46
85039;BME280;75366;54.588;18.456;2024-01-11T09:07:52;101361.06;;;1.43;83.43
85039;BME280;75366;54.588;18.456;2024-01-11T09:12:56;101370.27;;;1.46;83.31
85039;BME280;75366;54.588;18.456;2024-01-11T09:17:59;101368.96;;;1.50;83.13
85039;BME280;75366;54.588;18.456;2024-01-11T09:23:25;101373.79;;;1.51;83.14
85039;BME280;75366;54.588;18.456;2024-01-11T09:28:28;101373.30;;;1.55;82.88
85039;BME280;75366;54.588;18.456;2024-01-11T09:33:51;101369.11;;;1.53;83.09
85039;BME280;75366;54.588;18.456;2024-01-11T09:39:14;101371.35;;;1.59;83.01
85039;BME280;75366;54.588;18.456;2024-01-11T09:44:18;101372.64;;;1.67;82.69
85039;BME280;75366;54.588;18.456;2024-01-11T09:49:43;101371.87;;;1.74;82.77
85039;BME280;75366;54.588;18.456;2024-01-11T09:55:07;101372.15;;;1.77;82.60
85039;BME280;75366;54.588;18.456;2024-01-11T10:00:18;101372.98;;;1.82;82.43
85039;BME280;75366;54.588;18.456;2024-01-11T10:05:22;101375.82;;;1.87;82.34
85039;BME280;75366;54.588;18.456;2024-01-11T10:10:25;101376.81;;;1.87;82.42
85039;BME280;75366;54.588;18.456;2024-01-11T10:15:29;101375.16;;;1.85;82.38
85039;BME280;75366;54.588;18.456;2024-01-11T10:20:32;101381.96;;;1.85;82.51
85039;BME280;75366;54.588;18.456;2024-01-11T10:25:35;101378.15;;;1.90;82.34
85039;BME280;75366;54.588;18.456;2024-01-11T10:30:39;101365.32;;;1.96;82.22
85039;BME280;75366;54.588;18.456;2024-01-11T10:35:43;101361.30;;;2.01;82.05
85039;BME280;75366;54.588;18.456;2024-01-11T10:40:47;101362.41;;;2.09;82.12
85039;BME280;75366;54.588;18.456;2024-01-11T10:45:51;101360.73;;;2.16;82.16
85039;BME280;75366;54.588;18.456;2024-01-11T10:51:01;101370.93;;;2.23;82.03
85039;BME280;75366;54.588;18.456;2024-01-11T10:56:05;101378.19;;;2.22;82.11
85039;BME280;75366;54.588;18.456;2024-01-11T11:01:13;101389.80;;;2.24;82.00
85039;BME280;75366;54.588;18.456;2024-01-11T11:06:18;101381.15;;;2.28;82.33
85039;BME280;75366;54.588;18.456;2024-01-11T11:11:22;101380.83;;;2.27;82.60
85039;BME280;75366;54.588;18.456;2024-01-11T11:16:26;101379.64;;;2.24;82.91
85039;BME280;75366;54.588;18.456;2024-01-11T11:21:30;101374.79;;;2.23;83.24
85039;BME280;75366;54.588;18.456;2024-01-11T11:26:34;101368.20;;;2.17;83.56
85039;BME280;75366;54.588;18.456;2024-01-11T11:31:42;101357.55;;;2.11;83.79
85039;BME280;75366;54.588;18.456;2024-01-11T11:36:50;101353.55;;;2.11;83.94
85039;BME280;75366;54.588;18.456;2024-01-11T11:41:58;101353.30;;;2.13;84.14
85039;BME280;75366;54.588;18.456;2024-01-11T11:47:23;101357.88;;;2.15;84.08
85039;BME280;75366;54.588;18.456;2024-01-11T11:52:27;101364.00;;;2.18;84.08
85039;BME280;75366;54.588;18.456;2024-01-11T11:57:31;101362.95;;;2.21;84.14
85039;BME280;75366;54.588;18.456;2024-01-11T12:02:35;101361.19;;;2.23;83.92
85039;BME280;75366;54.588;18.456;2024-01-11T12:07:39;101362.92;;;2.25;83.99
85039;BME280;75366;54.588;18.456;2024-01-11T12:12:42;101362.37;;;2.24;84.16
85039;BME280;75366;54.588;18.456;2024-01-11T12:17:45;101360.05;;;2.30;84.03
85039;BME280;75366;54.588;18.456;2024-01-11T12:22:49;101349.89;;;2.37;83.88
85039;BME280;75366;54.588;18.456;2024-01-11T12:27:52;101341.99;;;2.44;83.66
85039;BME280;75366;54.588;18.456;2024-01-11T12:32:55;101358.52;;;2.46;83.51
85039;BME280;75366;54.588;18.456;2024-01-11T12:38:05;101363.94;;;2.47;83.41
85039;BME280;75366;54.588;18.456;2024-01-11T12:43:11;101363.92;;;2.47;83.36
85039;BME280;75366;54.588;18.456;2024-01-11T12:48:14;101355.97;;;2.44;83.39
85039;BME280;75366;54.588;18.456;2024-01-11T12:53:19;101346.92;;;2.45;83.41
85039;BME280;75366;54.588;18.456;2024-01-11T12:58:24;101349.19;;;2.42;83.52
85039;BME280;75366;54.588;18.456;2024-01-11T13:03:29;101342.24;;;2.40;83.89
85039;BME280;75366;54.588;18.456;2024-01-11T13:08:33;101354.61;;;2.35;84.17
85039;BME280;75366;54.588;18.456;2024-01-11T13:13:40;101371.20;;;2.35;84.25
85039;BME280;75366;54.588;18.456;2024-01-11T13:18:46;101371.00;;;2.37;84.26
85039;BME280;75366;54.588;18.456;2024-01-11T13:23:49;101378.24;;;2.39;84.11
85039;BME280;75366;54.588;18.456;2024-01-11T13:28:53;101382.16;;;2.41;84.06
85039;BME280;75366;54.588;18.456;2024-01-11T13:33:56;101385.63;;;2.39;83.86
85039;BME280;75366;54.588;18.456;2024-01-11T13:38:59;101394.65;;;2.37;83.87
85039;BME280;75366;54.588;18.456;2024-01-11T13:44:03;101396.02;;;2.34;83.81
85039;BME280;75366;54.588;18.456;2024-01-11T13:49:09;101406.47;;;2.35;83.69
85039;BME280;75366;54.588;18.456;2024-01-11T13:54:13;101412.42;;;2.37;83.49
85039;BME280;75366;54.588;18.456;2024-01-11T13:59:16;101415.25;;;2.35;83.25
85039;BME280;75366;54.588;18.456;2024-01-11T14:04:19;101422.84;;;2.40;82.85
85039;BME280;75366;54.588;18.456;2024-01-11T14:09:26;101428.14;;;2.40;81.96
85039;BME280;75366;54.588;18.456;2024-01-11T14:14:30;101431.20;;;2.41;81.16
85039;BME280;75366;54.588;18.456;2024-01-11T14:19:35;101435.51;;;2.37;81.00
85039;BME280;75366;54.588;18.456;2024-01-11T14:24:45;101444.98;;;2.35;80.63
85039;BME280;75366;54.588;18.456;2024-01-11T14:29:49;101455.22;;;2.32;79.83
85039;BME280;75366;54.588;18.456;2024-01-11T14:34:52;101457.34;;;2.27;79.02
85039;BME280;75366;54.588;18.456;2024-01-11T14:39:55;101456.86;;;2.16;78.45
85039;BME280;75366;54.588;18.456;2024-01-11T14:44:58;101468.17;;;2.13;76.90
85039;BME280;75366;54.588;18.456;2024-01-11T14:50:02;101471.98;;;2.07;76.05
85039;BME280;75366;54.588;18.456;2024-01-11T14:55:14;101480.91;;;2.04;75.61
85039;BME280;75366;54.588;18.456;2024-01-11T15:00:17;101495.13;;;1.98;75.69
85039;BME280;75366;54.588;18.456;2024-01-11T15:05:20;101500.45;;;1.92;75.94
85039;BME280;75366;54.588;18.456;2024-01-11T15:10:23;101518.44;;;1.88;75.90
85039;BME280;75366;54.588;18.456;2024-01-11T15:15:26;101527.48;;;1.87;76.11
85039;BME280;75366;54.588;18.456;2024-01-11T15:20:29;101533.59;;;1.88;76.18
85039;BME280;75366;54.588;18.456;2024-01-11T15:25:32;101548.20;;;1.86;76.36
85039;BME280;75366;54.588;18.456;2024-01-11T15:30:35;101547.55;;;1.84;76.72
85039;BME280;75366;54.588;18.456;2024-01-11T15:35:39;101566.08;;;1.73;77.58
85039;BME280;75366;54.588;18.456;2024-01-11T15:40:42;101575.61;;;1.54;78.16
85039;BME280;75366;54.588;18.456;2024-01-11T15:45:45;101588.10;;;1.49;77.88
85039;BME280;75366;54.588;18.456;2024-01-11T15:51:08;101595.62;;;1.56;75.95
85039;BME280;75366;54.588;18.456;2024-01-11T15:56:32;101594.17;;;1.62;74.39
85039;BME280;75366;54.588;18.456;2024-01-11T16:01:55;101598.55;;;1.59;74.35
85039;BME280;75366;54.588;18.456;2024-01-11T16:07:19;101609.63;;;1.57;73.74
85039;BME280;75366;54.588;18.456;2024-01-11T16:12:42;101614.61;;;1.55;73.37
85039;BME280;75366;54.588;18.456;2024-01-11T16:17:45;101621.11;;;1.54;73.27
85039;BME280;75366;54.588;18.456;2024-01-11T16:22:48;101623.61;;;1.47;73.38
85039;BME280;75366;54.588;18.456;2024-01-11T16:27:55;101626.86;;;1.45;72.63
85039;BME280;75366;54.588;18.456;2024-01-11T16:32:58;101625.73;;;1.40;73.21
85039;BME280;75366;54.588;18.456;2024-01-11T16:38:01;101635.13;;;1.36;71.98
85039;BME280;75366;54.588;18.456;2024-01-11T16:43:06;101636.55;;;1.29;71.71
85039;BME280;75366;54.588;18.456;2024-01-11T16:48:13;101641.25;;;1.28;71.58
85039;BME280;75366;54.588;18.456;2024-01-11T16:53:23;101642.51;;;1.24;71.92
85039;BME280;75366;54.588;18.456;2024-01-11T16:58:26;101646.67;;;1.23;71.85
85039;BME280;75366;54.588;18.456;2024-01-11T17:03:30;101639.38;;;1.22;71.56
85039;BME280;75366;54.588;18.456;2024-01-11T17:08:34;101637.58;;;1.16;72.07
85039;BME280;75366;54.588;18.456;2024-01-11T17:13:37;101632.48;;;1.14;71.06
85039;BME280;75366;54.588;18.456;2024-01-11T17:18:40;101646.73;;;1.11;71.60
85039;BME280;75366;54.588;18.456;2024-01-11T17:23:44;101655.61;;;1.10;72.42
85039;BME280;75366;54.588;18.456;2024-01-11T17:28:47;101658.81;;;1.06;72.60
85039;BME280;75366;54.588;18.456;2024-01-11T17:33:50;101664.79;;;1.04;72.62
85039;BME280;75366;54.588;18.456;2024-01-11T17:38:53;101674.38;;;0.98;72.40
85039;BME280;75366;54.588;18.456;2024-01-11T17:43:57;101679.65;;;0.98;72.86
85039;BME280;75366;54.588;18.456;2024-01-11T17:49:00;101693.14;;;0.97;73.63
85039;BME280;75366;54.588;18.456;2024-01-11T17:54:04;101700.13;;;0.90;73.51
85039;BME280;75366;54.588;18.456;2024-01-11T17:59:10;101707.60;;;0.87;72.60
85039;BME280;75366;54.588;18.456;2024-01-11T18:04:13;101716.25;;;0.81;71.84
85039;BME280;75366;54.588;18.456;2024-01-11T18:09:16;101712.42;;;0.83;70.44
85039;BME280;75366;54.588;18.456;2024-01-11T18:14:20;101716.11;;;0.81;69.32
85039;BME280;75366;54.588;18.456;2024-01-11T18:19:23;101716.56;;;0.74;69.27
85039;BME280;75366;54.588;18.456;2024-01-11T18:24:26;101720.65;;;0.77;69.66
85039;BME280;75366;54.588;18.456;2024-01-11T18:29:29;101723.52;;;0.77;69.34
85039;BME280;75366;54.588;18.456;2024-01-11T18:34:33;101724.63;;;0.76;69.33
85039;BME280;75366;54.588;18.456;2024-01-11T18:39:40;101736.17;;;0.81;68.18
85039;BME280;75366;54.588;18.456;2024-01-11T18:44:44;101741.08;;;0.75;67.48
85039;BME280;75366;54.588;18.456;2024-01-11T18:49:48;101742.36;;;0.65;67.56
85039;BME280;75366;54.588;18.456;2024-01-11T18:54:51;101735.27;;;0.66;67.96
85039;BME280;75366;54.588;18.456;2024-01-11T19:00:03;101738.85;;;0.61;67.80
85039;BME280;75366;54.588;18.456;2024-01-11T19:05:26;101745.96;;;0.52;68.00
85039;BME280;75366;54.588;18.456;2024-01-11T19:10:29;101747.27;;;0.53;67.70
85039;BME280;75366;54.588;18.456;2024-01-11T19:15:32;101744.92;;;0.46;67.08
85039;BME280;75366;54.588;18.456;2024-01-11T19:20:37;101744.77;;;0.37;66.79
85039;BME280;75366;54.588;18.456;2024-01-11T19:25:42;101748.88;;;0.39;66.18
85039;BME280;75366;54.588;18.456;2024-01-11T19:30:45;101752.97;;;0.36;66.27
85039;BME280;75366;54.588;18.456;2024-01-11T19:35:48;101762.55;;;0.35;65.90
85039;BME280;75366;54.588;18.456;2024-01-11T19:40:51;101771.84;;;0.41;66.16
85039;BME280;75366;54.588;18.456;2024-01-11T19:45:54;101773.17;;;0.50;65.13
85039;BME280;75366;54.588;18.456;2024-01-11T19:50:59;101775.64;;;0.52;64.43
85039;BME280;75366;54.588;18.456;2024-01-11T19:56:14;101778.91;;;0.48;64.04
85039;BME280;75366;54.588;18.456;2024-01-11T20:01:18;101791.54;;;0.47;64.63
85039;BME280;75366;54.588;18.456;2024-01-11T20:06:22;101804.58;;;0.52;65.84
85039;BME280;75366;54.588;18.456;2024-01-11T20:11:26;101812.14;;;0.52;66.31
85039;BME280;75366;54.588;18.456;2024-01-11T20:16:29;101818.30;;;0.46;66.39
85039;BME280;75366;54.588;18.456;2024-01-11T20:21:32;101812.84;;;0.38;65.42
85039;BME280;75366;54.588;18.456;2024-01-11T20:26:36;101817.83;;;0.36;65.35
85039;BME280;75366;54.588;18.456;2024-01-11T20:31:39;101819.73;;;0.38;64.27
85039;BME280;75366;54.588;18.456;2024-01-11T20:36:42;101828.11;;;0.42;64.06
85039;BME280;75366;54.588;18.456;2024-01-11T20:41:46;101843.60;;;0.38;64.24
85039;BME280;75366;54.588;18.456;2024-01-11T20:46:49;101852.91;;;0.32;64.68
85039;BME280;75366;54.588;18.456;2024-01-11T20:51:53;101854.42;;;0.23;64.98
85039;BME280;75366;54.588;18.456;2024-01-11T20:57:00;101861.21;;;0.15;65.22
85039;BME280;75366;54.588;18.456;2024-01-11T21:02:03;101866.52;;;0.06;64.60
85039;BME280;75366;54.588;18.456;2024-01-11T21:07:07;101878.27;;;-0.04;63.15
85039;BME280;75366;54.588;18.456;2024-01-11T21:12:10;101879.86;;;-0.11;63.36
85039;BME280;75366;54.588;18.456;2024-01-11T21:17:13;101884.32;;;-0.20;62.50
85039;BME280;75366;54.588;18.456;2024-01-11T21:22:18;101883.36;;;-0.27;62.61
85039;BME280;75366;54.588;18.456;2024-01-11T21:27:22;101888.25;;;-0.34;62.29
85039;BME280;75366;54.588;18.456;2024-01-11T21:32:24;101888.02;;;-0.42;62.04
85039;BME280;75366;54.588;18.456;2024-01-11T21:37:28;101891.66;;;-0.42;61.02
85039;BME280;75366;54.588;18.456;2024-01-11T21:42:31;101901.12;;;-0.46;60.44
85039;BME280;75366;54.588;18.456;2024-01-11T21:47:35;101901.99;;;-0.54;60.55
85039;BME280;75366;54.588;18.456;2024-01-11T21:52:38;101908.27;;;-0.59;61.13
85039;BME280;75366;54.588;18.456;2024-01-11T21:57:41;101911.27;;;-0.61;61.42
85039;BME280;75366;54.588;18.456;2024-01-11T22:02:45;101906.15;;;-0.61;60.91
85039;BME280;75366;54.588;18.456;2024-01-11T22:07:48;101906.92;;;-0.62;61.57
85039;BME280;75366;54.588;18.456;2024-01-11T22:12:52;101914.66;;;-0.58;62.45
85039;BME280;75366;54.588;18.456;2024-01-11T22:17:55;101924.18;;;-0.54;64.30
85039;BME280;75366;54.588;18.456;2024-01-11T22:22:59;101926.79;;;-0.46;64.97
85039;BME280;75366;54.588;18.456;2024-01-11T22:28:02;101933.50;;;-0.43;64.83
85039;BME280;75366;54.588;18.456;2024-01-11T22:33:05;101933.07;;;-0.44;64.16
85039;BME280;75366;54.588;18.456;2024-01-11T22:38:10;101932.44;;;-0.45;63.67
85039;BME280;75366;54.588;18.456;2024-01-11T22:43:13;101938.20;;;-0.48;63.34
85039;BME280;75366;54.588;18.456;2024-01-11T22:48:16;101948.17;;;-0.50;64.11
85039;BME280;75366;54.588;18.456;2024-01-11T22:53:20;101945.05;;;-0.55;64.77
85039;BME280;75366;54.588;18.456;2024-01-11T22:58:24;101944.71;;;-0.51;64.75
85039;BME280;75366;54.588;18.456;2024-01-11T23:03:27;101945.63;;;-0.47;64.85
85039;BME280;75366;54.588;18.456;2024-01-11T23:08:30;101936.79;;;-0.48;64.98
85039;BME280;75366;54.588;18.456;2024-01-11T23:13:33;101928.45;;;-0.51;64.68
85039;BME280;75366;54.588;18.456;2024-01-11T23:18:37;101921.23;;;-0.57;64.87
85039;BME280;75366;54.588;18.456;2024-01-11T23:23:41;101922.67;;;-0.63;64.68
85039;BME280;75366;54.588;18.456;2024-01-11T23:28:45;101920.53;;;-0.69;65.05
85039;BME280;75366;54.588;18.456;2024-01-11T23:33:48;101917.38;;;-0.77;65.35
85039;BME280;75366;54.588;18.456;2024-01-11T23:38:52;101914.02;;;-0.85;65.57
85039;BME280;75366;54.588;18.456;2024-01-11T23:43:55;101912.85;;;-0.94;65.48
85039;BME280;75366;54.588;18.456;2024-01-11T23:48:59;101911.92;;;-0.97;65.38
85039;BME280;75366;54.588;18.456;2024-01-11T23:54:03;101912.80;;;-0.97;65.72
85039;BME280;75366;54.588;18.456;2024-01-11T23:59:07;101915.42;;;-1.03;64.93
